Time;durP1;ratioP1;P1;durP2;ratioP2;P2;SDS_P1;SDS_P2;PMS_P1;PMS_P2;Temp;Humidity;BMP_temperature;BMP_pressure;BME280_temperature;BME280_humidity;BME280_pressure;Samples;Min_cycle;Max_cycle;Signal;HPM_P1;HPM_P2
2021/01/29 00:00:26;;;;;;;2.20;1.70;;;;;;;6.98;100.00;94952.44;974552;30;20036;-57
2021/01/29 00:00:57;;;;;;;2.85;1.73;;;;;;;6.96;100.00;94955.25;985666;30;20352;-58
2021/01/29 00:01:28;;;;;;;4.07;2.10;;;;;;;6.91;100.00;94944.41;985624;30;20031;-58
2021/01/29 00:01:59;;;;;;;3.13;2.15;;;;;;;6.96;100.00;94955.25;978389;30;20017;-58
2021/01/29 00:02:30;;;;;;;3.85;1.92;;;;;;;6.95;100.00;94952.81;981753;30;20412;-58
2021/01/29 00:03:01;;;;;;;3.35;2.05;;;;;;;6.88;100.00;94962.44;989217;30;20023;-59
2021/01/29 00:03:32;;;;;;;3.00;1.92;;;;;;;6.87;100.00;94958.16;993217;29;20056;-59
2021/01/29 00:04:03;;;;;;;2.53;2.00;;;;;;;6.92;100.00;94945.25;989258;30;20122;-58
2021/01/29 00:04:34;;;;;;;3.05;2.30;;;;;;;6.93;100.00;94954.78;985427;30;20031;-58
2021/01/29 00:05:06;;;;;;;2.45;2.00;;;;;;;6.92;100.00;94948.72;989417;30;20494;-58
2021/01/29 00:05:40;;;;;;;2.42;1.85;;;;;;;6.90;100.00;94956.00;978349;30;20468;-58
2021/01/29 00:06:11;;;;;;;3.80;2.33;;;;;;;6.92;100.00;94963.72;989176;30;20081;-58
2021/01/29 00:06:42;;;;;;;3.65;1.83;;;;;;;6.88;100.00;94952.72;992893;29;20074;-58
2021/01/29 00:07:13;;;;;;;3.15;2.00;;;;;;;6.88;100.00;94958.00;985608;30;20471;-57
2021/01/29 00:07:44;;;;;;;3.65;1.88;;;;;;;6.91;100.00;94959.44;978243;30;20021;-59
2021/01/29 00:08:14;;;;;;;3.25;2.15;;;;;;;6.90;100.00;94956.00;989198;30;20117;-58
2021/01/29 00:08:45;;;;;;;3.08;2.25;;;;;;;6.93;100.00;94954.78;981851;30;20384;-59
2021/01/29 00:09:18;;;;;;;2.60;2.00;;;;;;;6.90;100.00;94966.53;974823;30;20069;-58
2021/01/29 00:09:49;;;;;;;4.15;2.72;;;;;;;6.91;100.00;94962.06;985661;30;20016;-58
2021/01/29 00:10:20;;;;;;;3.55;1.95;;;;;;;6.87;100.00;94966.88;981910;30;20476;-58
2021/01/29 00:10:52;;;;;;;3.22;2.50;;;;;;;6.89;100.00;94964.09;989191;30;20023;-57
2021/01/29 00:11:24;;;;;;;3.15;2.20;;;;;;;6.89;100.00;94959.63;996709;29;20070;-58
2021/01/29 00:11:54;;;;;;;3.13;2.38;;;;;;;6.86;100.00;94956.50;1000594;29;20383;-57
2021/01/29 00:12:25;;;;;;;4.45;2.53;;;;;;;6.90;100.00;94961.28;992939;29;20019;-58
2021/01/29 00:12:57;;;;;;;3.30;2.70;;;;;;;6.89;100.00;94959.63;978255;30;20401;-58
2021/01/29 00:13:28;;;;;;;2.85;2.38;;;;;;;6.88;100.00;94960.63;985587;30;20028;-59
2021/01/29 00:13:58;;;;;;;2.60;2.28;;;;;;;6.86;100.00;94944.16;981853;30;20032;-57
2021/01/29 00:14:29;;;;;;;5.18;2.50;;;;;;;6.83;100.00;94960.34;978269;30;20033;-57
2021/01/29 00:15:00;;;;;;;3.83;2.90;;;;;;;6.87;100.00;94953.69;989075;30;20522;-57
2021/01/29 00:15:32;;;;;;;3.28;2.53;;;;;;;6.89;100.00;94951.69;985601;30;20020;-57
2021/01/29 00:16:03;;;;;;;4.32;2.70;;;;;;;6.80;100.00;94955.41;993153;29;20360;-58
2021/01/29 00:16:34;;;;;;;3.40;2.80;;;;;;;6.75;100.00;94952.47;985431;30;20465;-57
2021/01/29 00:17:05;;;;;;;3.70;2.88;;;;;;;6.83;100.00;94951.56;985407;30;20016;-57
2021/01/29 00:17:36;;;;;;;2.63;2.13;;;;;;;6.87;100.00;94950.25;996652;29;20030;-57
2021/01/29 00:18:07;;;;;;;3.53;2.28;;;;;;;6.88;100.00;94957.16;989257;30;20038;-58
2021/01/29 00:18:38;;;;;;;3.20;2.45;;;;;;;6.92;100.00;94951.34;989323;30;20035;-57
2021/01/29 00:19:09;;;;;;;2.40;2.08;;;;;;;6.93;100.00;94946.88;992823;29;20042;-58
2021/01/29 00:19:39;;;;;;;2.70;1.95;;;;;;;6.93;100.00;94950.38;981914;30;20036;-57
2021/01/29 00:20:12;;;;;;;3.38;2.35;;;;;;;6.89;100.00;94956.97;982106;30;20108;-58
2021/01/29 00:20:43;;;;;;;2.75;2.13;;;;;;;6.91;100.00;94952.34;989280;30;20072;-58
2021/01/29 00:21:13;;;;;;;2.92;2.30;;;;;;;6.88;100.00;94947.44;992839;29;20031;-58
2021/01/29 00:21:44;;;;;;;4.38;2.58;;;;;;;6.90;100.00;94934.88;981970;30;20111;-58
2021/01/29 00:22:15;;;;;;;4.55;2.17;;;;;;;6.94;100.00;94936.16;992974;29;20022;-57
2021/01/29 00:22:46;;;;;;;4.22;2.33;;;;;;;6.89;100.00;94948.25;989271;30;20023;-58
2021/01/29 00:23:18;;;;;;;3.78;2.20;;;;;;;6.94;100.00;94933.50;981754;30;20028;-59
2021/01/29 00:23:49;;;;;;;3.00;2.30;;;;;;;6.95;100.00;94948.34;985555;30;20028;-58
2021/01/29 00:24:20;;;;;;;2.97;2.30;;;;;;;6.94;100.00;94940.63;992915;29;20380;-56
2021/01/29 00:24:51;;;;;;;2.95;2.28;;;;;;;6.96;100.00;94946.53;996742;29;20388;-58
2021/01/29 00:25:25;;;;;;;2.50;2.00;;;;;;;6.98;100.00;94940.09;989093;30;20019;-58
2021/01/29 00:25:56;;;;;;;2.60;2.00;;;;;;;6.97;100.00;94951.63;985403;30;20024;-58
2021/01/29 00:26:26;;;;;;;2.22;1.83;;;;;;;7.00;100.00;94950.44;985705;30;20039;-58
2021/01/29 00:26:57;;;;;;;2.45;1.67;;;;;;;7.05;100.00;94942.00;989179;30;20118;-58
2021/01/29 00:27:29;;;;;;;2.92;1.98;;;;;;;7.07;100.00;94945.28;988965;30;20126;-58
2021/01/29 00:28:00;;;;;;;3.10;1.88;;;;;;;6.99;100.00;94944.34;989229;30;20104;-58
2021/01/29 00:28:31;;;;;;;2.00;1.50;;;;;;;7.04;100.00;94935.91;989309;29;20070;-58
2021/01/29 00:29:02;;;;;;;2.75;1.77;;;;;;;7.06;100.00;94939.19;992751;29;20150;-58
2021/01/29 00:29:33;;;;;;;2.60;1.80;;;;;;;7.08;100.00;94941.66;985449;30;20123;-58
2021/01/29 00:30:05;;;;;;;2.13;1.65;;;;;;;7.09;100.00;94949.38;985558;30;20031;-59
2021/01/29 00:30:36;;;;;;;2.10;1.50;;;;;;;7.09;100.00;94948.53;985583;30;20028;-58
2021/01/29 00:31:06;;;;;;;2.70;1.73;;;;;;;7.11;100.00;94944.75;989190;29;20043;-58
2021/01/29 00:31:37;;;;;;;1.98;1.48;;;;;;;7.11;100.00;94942.09;981457;30;20024;-57
2021/01/29 00:32:08;;;;;;;1.70;1.40;;;;;;;7.07;100.00;94940.84;981949;30;20447;-57
2021/01/29 00:32:40;;;;;;;2.15;1.50;;;;;;;7.09;100.00;94943.28;990933;29;20031;-57
2021/01/29 00:33:12;;;;;;;1.98;1.50;;;;;;;7.04;100.00;94943.00;981916;30;20026;-57
2021/01/29 00:33:43;;;;;;;2.20;1.50;;;;;;;7.04;100.00;94937.72;987770;30;20099;-57
2021/01/29 00:34:14;;;;;;;2.10;1.45;;;;;;;7.02;100.00;94939.72;989307;30;20027;-57
2021/01/29 00:34:45;;;;;;;1.65;1.38;;;;;;;7.03;100.00;94944.00;1000484;29;20128;-57
2021/01/29 00:35:16;;;;;;;2.47;1.50;;;;;;;7.03;100.00;94941.38;989293;30;20031;-59
2021/01/29 00:35:50;;;;;;;1.98;1.30;;;;;;;7.04;100.00;94938.53;980693;30;20036;-57
2021/01/29 00:36:20;;;;;;;1.30;1.10;;;;;;;7.06;100.00;94938.38;996728;29;20075;-57
2021/01/29 00:36:51;;;;;;;1.80;1.50;;;;;;;7.03;100.00;94934.25;993077;29;20039;-59
2021/01/29 00:37:22;;;;;;;2.75;1.67;;;;;;;6.98;100.00;94936.59;981824;30;20023;-57
2021/01/29 00:37:53;;;;;;;2.15;1.50;;;;;;;7.01;100.00;94936.25;985470;30;20097;-59
2021/01/29 00:38:24;;;;;;;1.77;1.17;;;;;;;7.01;100.00;94930.97;981935;30;20032;-58
2021/01/29 00:38:57;;;;;;;2.10;1.35;;;;;;;7.01;100.00;94943.38;989584;29;20034;-58
2021/01/29 00:39:28;;;;;;;1.70;1.42;;;;;;;7.07;100.00;94929.44;989226;30;20023;-59
2021/01/29 00:39:59;;;;;;;1.98;1.20;;;;;;;7.06;100.00;94933.91;974410;30;20033;-58
2021/01/29 00:40:30;;;;;;;1.52;1.25;;;;;;;7.06;100.00;94925.16;985624;30;20123;-59
2021/01/29 00:41:00;;;;;;;2.13;1.20;;;;;;;7.05;100.00;94931.44;996737;29;20034;-59
2021/01/29 00:41:31;;;;;;;2.88;1.27;;;;;;;7.04;100.00;94933.28;989327;29;20015;-59
2021/01/29 00:42:02;;;;;;;1.80;1.23;;;;;;;7.03;100.00;94928.16;988777;30;20043;-58
2021/01/29 00:42:33;;;;;;;3.22;1.30;;;;;;;7.02;100.00;94934.44;985602;30;20023;-58
2021/01/29 00:43:05;;;;;;;1.83;1.30;;;;;;;6.95;100.00;94916.69;988915;30;20110;-58
2021/01/29 00:43:35;;;;;;;2.05;1.30;;;;;;;6.96;100.00;94928.88;993312;29;20117;-58
2021/01/29 00:44:06;;;;;;;1.67;1.35;;;;;;;6.92;100.00;94922.31;1000313;29;20070;-59
2021/01/29 00:44:37;;;;;;;1.63;1.30;;;;;;;6.95;100.00;94931.72;993010;29;20027;-58
2021/01/29 00:45:09;;;;;;;1.92;1.25;;;;;;;6.95;100.00;94921.97;992931;29;20030;-59
2021/01/29 00:45:40;;;;;;;1.88;1.25;;;;;;;6.93;100.00;94931.03;985570;30;20019;-58
2021/01/29 00:46:10;;;;;;;1.65;1.20;;;;;;;6.94;100.00;94930.88;985331;30;20197;-58
2021/01/29 00:46:41;;;;;;;1.67;1.10;;;;;;;6.95;100.00;94929.06;989310;30;20092;-58
2021/01/29 00:47:12;;;;;;;1.35;1.02;;;;;;;6.94;100.00;94930.06;985552;30;20070;-58
2021/01/29 00:47:43;;;;;;;1.60;1.30;;;;;;;6.93;100.00;94934.53;981731;30;20024;-59
2021/01/29 00:48:14;;;;;;;1.80;1.27;;;;;;;6.95;100.00;94924.59;988999;30;20047;-57
2021/01/29 00:48:46;;;;;;;1.80;1.10;;;;;;;6.90;100.00;94920.88;985594;30;20042;-59
2021/01/29 00:49:16;;;;;;;1.60;1.20;;;;;;;6.93;100.00;94925.75;978156;30;20572;-59
2021/01/29 00:49:47;;;;;;;1.73;1.30;;;;;;;6.91;100.00;94928.56;971116;30;20036;-58
2021/01/29 00:50:18;;;;;;;1.85;1.27;;;;;;;6.91;100.00;94925.13;985220;30;20512;-59
2021/01/29 00:50:49;;;;;;;1.73;1.25;;;;;;;6.89;100.00;94932.41;981913;30;20016;-59
2021/01/29 00:51:20;;;;;;;1.52;1.10;;;;;;;6.89;100.00;94933.22;989193;29;20031;-58
2021/01/29 00:51:51;;;;;;;1.42;1.02;;;;;;;6.66;100.00;94901.59;993018;29;20047;-58
2021/01/29 00:52:21;;;;;;;1.50;1.08;;;;;;;6.88;100.00;94938.69;974422;30;20033;-58
2021/01/29 00:52:53;;;;;;;1.73;1.17;;;;;;;6.86;100.00;94933.59;985458;30;20020;-58
2021/01/29 00:53:24;;;;;;;1.67;1.15;;;;;;;6.86;100.00;94928.31;985653;30;20495;-59
2021/01/29 00:53:55;;;;;;;3.28;1.63;;;;;;;6.84;100.00;94935.56;985558;30;20036;-58
2021/01/29 00:54:25;;;;;;;2.05;1.10;;;;;;;6.82;100.00;94932.28;985263;30;20062;-58
2021/01/29 00:54:56;;;;;;;1.40;1.10;;;;;;;6.83;100.00;94928.66;988986;30;20027;-58
2021/01/29 00:55:27;;;;;;;1.98;1.25;;;;;;;6.82;100.00;94920.94;989230;30;20023;-58
2021/01/29 00:55:58;;;;;;;1.98;1.33;;;;;;;6.82;100.00;94936.75;985430;30;20036;-58
2021/01/29 00:56:29;;;;;;;2.22;1.50;;;;;;;6.82;100.00;94936.75;981639;30;20036;-58
2021/01/29 00:57:00;;;;;;;2.13;1.23;;;;;;;6.83;100.00;94928.66;989182;30;20038;-58
2021/01/29 00:57:31;;;;;;;1.45;1.20;;;;;;;6.85;100.00;94939.06;989014;30;20099;-57
2021/01/29 00:58:03;;;;;;;1.42;1.10;;;;;;;6.86;100.00;94933.59;985557;30;20142;-58
2021/01/29 00:58:33;;;;;;;2.35;1.20;;;;;;;6.86;100.00;94938.03;988742;30;20475;-58
2021/01/29 00:59:04;;;;;;;2.25;1.13;;;;;;;6.78;100.00;94931.84;989253;30;20023;-58
2021/01/29 00:59:35;;;;;;;1.70;1.30;;;;;;;6.76;100.00;94939.13;983198;30;20024;-58
2021/01/29 01:00:08;;;;;;;2.60;1.50;;;;;;;6.79;100.00;94937.94;981899;30;20064;-60
2021/01/29 01:00:39;;;;;;;1.60;1.30;;;;;;;6.79;100.00;94940.56;985337;30;20035;-59
2021/01/29 01:01:10;;;;;;;3.03;1.52;;;;;;;6.80;100.00;94947.50;1000438;29;20404;-58
2021/01/29 01:01:41;;;;;;;2.03;1.25;;;;;;;6.76;100.00;94936.47;1000418;29;20065;-58
2021/01/29 01:02:12;;;;;;;2.80;1.65;;;;;;;6.78;100.00;94942.38;997390;29;20118;-58
2021/01/29 01:02:43;;;;;;;1.85;1.38;;;;;;;6.74;100.00;94941.13;996662;29;20038;-59
2021/01/29 01:03:14;;;;;;;2.08;1.50;;;;;;;6.74;100.00;94935.00;993632;29;20499;-58
2021/01/29 01:03:44;;;;;;;2.72;1.50;;;;;;;6.74;100.00;94941.13;996298;29;20030;-58
2021/01/29 01:04:15;;;;;;;2.05;1.60;;;;;;;6.75;100.00;94939.28;982623;30;20538;-59
2021/01/29 01:04:46;;;;;;;2.05;1.50;;;;;;;6.74;100.00;94940.28;993511;29;20018;-58
2021/01/29 01:05:17;;;;;;;2.47;1.63;;;;;;;6.75;100.00;94940.09;989831;30;20391;-58
2021/01/29 01:05:48;;;;;;;2.92;1.65;;;;;;;6.70;100.00;94939.00;986232;30;20024;-59
2021/01/29 01:06:19;;;;;;;2.80;1.95;;;;;;;6.69;100.00;94937.34;978855;30;20119;-58
2021/01/29 01:06:50;;;;;;;3.83;1.75;;;;;;;6.69;100.00;94937.34;986009;30;20028;-59
2021/01/29 01:07:21;;;;;;;2.47;1.77;;;;;;;6.70;100.00;94933.72;975111;30;20033;-59
2021/01/29 01:07:52;;;;;;;2.80;2.00;;;;;;;6.67;100.00;94940.19;982389;30;20039;-59
2021/01/29 01:08:22;;;;;;;3.55;2.25;;;;;;;6.69;100.00;94934.69;993579;29;20053;-60
2021/01/29 01:08:53;;;;;;;2.40;1.90;;;;;;;6.66;100.00;94933.25;993447;29;20027;-58
2021/01/29 01:09:33;;;;;;;2.95;2.08;;;;;;;6.69;100.00;94929.44;982524;30;20032;-58
2021/01/29 01:10:06;;;;;;;3.97;2.22;;;;;;;6.67;100.00;94931.44;983846;30;20034;-58
2021/01/29 01:10:36;;;;;;;3.47;2.17;;;;;;;6.66;100.00;94927.97;993621;29;20129;-59
2021/01/29 01:11:07;;;;;;;2.50;1.77;;;;;;;6.60;100.00;94926.88;991873;29;20052;-58
2021/01/29 01:11:38;;;;;;;3.65;2.15;;;;;;;6.64;100.00;94929.16;989875;30;20038;-58
2021/01/29 01:12:09;;;;;;;2.88;2.00;;;;;;;6.60;100.00;94937.44;989946;30;20031;-58
2021/01/29 01:12:40;;;;;;;2.97;1.98;;;;;;;6.59;100.00;94919.94;984536;30;20051;-60
2021/01/29 01:13:11;;;;;;;2.88;1.98;;;;;;;6.59;100.00;94932.31;985953;30;20494;-58
2021/01/29 01:13:41;;;;;;;3.38;2.13;;;;;;;6.61;100.00;94927.69;997298;29;20174;-59
2021/01/29 01:14:12;;;;;;;3.28;2.40;;;;;;;6.61;100.00;94925.06;982531;30;20036;-58
2021/01/29 01:14:43;;;;;;;3.15;2.30;;;;;;;6.60;100.00;94918.97;981346;30;20578;-58
2021/01/29 01:15:16;;;;;;;3.22;2.50;;;;;;;6.61;100.00;94923.22;997106;29;20130;-58
2021/01/29 01:15:47;;;;;;;3.25;2.40;;;;;;;6.64;100.00;94926.53;986175;30;20020;-58
2021/01/29 01:16:17;;;;;;;2.72;2.00;;;;;;;6.60;100.00;94924.25;986276;30;20384;-59
2021/01/29 01:16:48;;;;;;;3.58;2.30;;;;;;;6.60;100.00;94929.50;989951;30;20502;-59
2021/01/29 01:17:20;;;;;;;2.95;2.13;;;;;;;6.61;100.00;94917.94;989588;30;20030;-58
2021/01/29 01:17:52;;;;;;;3.20;2.30;;;;;;;6.62;100.00;94918.78;993229;29;20172;-58
2021/01/29 01:18:22;;;;;;;3.08;2.35;;;;;;;6.63;100.00;94922.25;989799;30;20129;-59
2021/01/29 01:18:54;;;;;;;3.78;2.72;;;;;;;6.62;100.00;94921.44;989909;30;20027;-58
2021/01/29 01:19:25;;;;;;;3.25;2.47;;;;;;;6.64;100.00;94919.44;989602;29;20034;-59
2021/01/29 01:19:55;;;;;;;3.63;2.70;;;;;;;6.66;100.00;94920.06;986180;30;20028;-58
2021/01/29 01:20:29;;;;;;;4.25;2.50;;;;;;;6.64;100.00;94916.78;990167;29;20407;-58
2021/01/29 01:21:00;;;;;;;3.22;2.40;;;;;;;6.67;100.00;94918.25;986230;30;20055;-58
2021/01/29 01:21:30;;;;;;;3.08;2.25;;;;;;;6.60;100.00;94915.47;982256;30;20038;-58
2021/01/29 01:22:03;;;;;;;3.50;2.67;;;;;;;6.60;100.00;94911.06;986183;30;20372;-59
2021/01/29 01:22:34;;;;;;;3.33;2.53;;;;;;;6.65;100.00;94912.31;976422;30;20095;-58
2021/01/29 01:23:05;;;;;;;3.22;2.35;;;;;;;6.65;100.00;94914.97;982547;30;20070;-58
2021/01/29 01:23:35;;;;;;;3.10;2.38;;;;;;;6.64;100.00;94913.34;982349;30;20485;-58
2021/01/29 01:24:07;;;;;;;3.40;2.25;;;;;;;6.65;100.00;94904.41;993561;29;20463;-58
2021/01/29 01:24:44;;;;;;;2.90;2.22;;;;;;;6.63;100.00;94907.22;986170;30;20492;-58
2021/01/29 01:25:15;;;;;;;4.68;2.33;;;;;;;6.53;100.00;94902.22;993474;29;20045;-58
2021/01/29 01:25:46;;;;;;;3.10;2.13;;;;;;;6.54;100.00;94908.28;982323;30;20078;-58
2021/01/29 01:26:17;;;;;;;3.97;2.47;;;;;;;6.57;100.00;94902.66;978921;30;20025;-59
2021/01/29 01:26:47;;;;;;;3.45;2.42;;;;;;;6.59;100.00;94900.66;978827;30;20024;-58
2021/01/29 01:27:18;;;;;;;3.97;2.75;;;;;;;6.60;100.00;94902.28;989768;30;20031;-60
2021/01/29 01:27:49;;;;;;;2.85;2.33;;;;;;;6.56;100.00;94901.03;985900;30;20043;-59
2021/01/29 01:28:20;;;;;;;5.07;2.50;;;;;;;6.54;100.00;94903.03;986146;30;20027;-60
2021/01/29 01:28:51;;;;;;;3.65;2.50;;;;;;;6.55;100.00;94905.47;982471;30;20043;-59
2021/01/29 01:29:22;;;;;;;4.15;2.85;;;;;;;6.58;100.00;94899.03;982288;30;20511;-59
2021/01/29 01:29:53;;;;;;;3.38;2.58;;;;;;;6.51;100.00;94888.34;989619;30;20075;-59
2021/01/29 01:30:29;;;;;;;3.75;2.83;;;;;;;6.56;100.00;94890.47;993565;29;20202;-58
2021/01/29 01:31:00;;;;;;;3.03;2.40;;;;;;;6.58;100.00;94894.59;990029;29;20039;-59
2021/01/29 01:31:31;;;;;;;3.08;2.45;;;;;;;6.58;100.00;94894.59;993524;29;20055;-59
2021/01/29 01:32:03;;;;;;;3.03;2.42;;;;;;;6.58;100.00;94899.84;989617;29;20133;-59
2021/01/29 01:32:33;;;;;;;4.03;2.50;;;;;;;6.58;100.00;94894.59;982429;30;20443;-59
2021/01/29 01:33:04;;;;;;;3.65;2.70;;;;;;;6.56;100.00;94887.84;993644;29;20034;-58
2021/01/29 01:33:35;;;;;;;3.20;2.45;;;;;;;6.59;100.00;94890.94;987520;30;20027;-58
2021/01/29 01:34:06;;;;;;;2.78;2.05;;;;;;;6.60;100.00;94882.03;985907;30;20043;-58
2021/01/29 01:34:37;;;;;;;3.78;2.28;;;;;;;6.61;100.00;94881.00;982498;30;20560;-60
2021/01/29 01:35:09;;;;;;;3.50;2.65;;;;;;;6.65;100.00;94881.47;989862;30;20023;-60
2021/01/29 01:35:39;;;;;;;3.15;2.17;;;;;;;6.64;100.00;94877.22;999049;29;20342;-60
2021/01/29 01:36:13;;;;;;;3.28;2.40;;;;;;;6.60;100.00;94868.84;985938;30;20118;-59
2021/01/29 01:36:44;;;;;;;3.35;2.25;;;;;;;6.63;100.00;94867.66;989773;30;20035;-59
2021/01/29 01:37:15;;;;;;;2.88;2.20;;;;;;;6.65;100.00;94864.84;997338;29;20037;-58
2021/01/29 01:37:46;;;;;;;3.70;2.30;;;;;;;6.65;100.00;94863.00;989708;30;20027;-58
2021/01/29 01:38:17;;;;;;;3.17;2.40;;;;;;;6.68;100.00;94862.66;989703;30;20041;-59
2021/01/29 01:38:48;;;;;;;3.17;2.55;;;;;;;6.69;100.00;94864.31;989981;30;20131;-59
2021/01/29 01:39:19;;;;;;;3.53;2.30;;;;;;;6.70;100.00;94857.22;989876;30;20566;-59
2021/01/29 01:39:49;;;;;;;2.63;2.20;;;;;;;6.69;100.00;94858.19;985652;30;20077;-59
2021/01/29 01:40:24;;;;;;;3.70;2.70;;;;;;;6.66;100.00;94859.38;989711;30;20033;-59
2021/01/29 01:40:55;;;;;;;2.88;2.28;;;;;;;6.70;100.00;94854.56;982448;30;20077;-58
2021/01/29 01:41:26;;;;;;;3.35;2.58;;;;;;;6.72;100.00;94850.78;986291;30;20077;-57
2021/01/29 01:41:57;;;;;;;2.85;2.22;;;;;;;6.68;100.00;94853.94;986109;30;20036;-58
2021/01/29 01:42:28;;;;;;;3.58;2.42;;;;;;;6.70;100.00;94855.38;985977;30;20050;-58
2021/01/29 01:42:59;;;;;;;2.92;2.20;;;;;;;6.71;100.00;94853.59;986397;30;20035;-58
2021/01/29 01:43:30;;;;;;;3.25;2.22;;;;;;;6.71;100.00;94848.31;986357;30;20131;-59
2021/01/29 01:44:03;;;;;;;3.90;2.90;;;;;;;6.73;100.00;94841.03;986061;30;20024;-57
2021/01/29 01:44:36;;;;;;;3.03;2.40;;;;;;;6.69;100.00;94850.28;985990;30;20035;-58
2021/01/29 01:45:26;;;;;;;3.38;2.60;;;;;;;6.73;100.00;94841.03;978850;30;20087;-58
2021/01/29 01:45:58;;;;;;;3.38;2.85;;;;;;;6.71;100.00;94830.66;989157;30;20028;-57
2021/01/29 01:46:29;;;;;;;3.38;2.70;;;;;;;6.71;100.00;94832.47;989516;30;20047;-58
2021/01/29 01:47:05;;;;;;;4.05;2.85;;;;;;;6.70;100.00;94828.19;993363;29;20030;-57
2021/01/29 01:47:37;;;;;;;3.65;2.42;;;;;;;6.68;100.00;94833.63;989760;30;20043;-58
2021/01/29 01:48:10;;;;;;;2.90;2.30;;;;;;;6.68;100.00;94822.28;989711;30;20027;-58
2021/01/29 01:48:52;;;;;;;2.80;2.38;;;;;;;6.65;100.00;94834.00;993259;29;20031;-59
2021/01/29 01:49:24;;;;;;;3.00;2.33;;;;;;;6.69;100.00;94827.38;997239;29;20033;-57
2021/01/29 01:49:58;;;;;;;3.30;2.50;;;;;;;6.71;100.00;94827.19;985989;30;20024;-57
2021/01/29 01:50:31;;;;;;;3.38;2.40;;;;;;;6.66;100.00;94822.47;975152;30;20037;-57
2021/01/29 01:51:02;;;;;;;3.05;2.40;;;;;;;6.67;100.00;94818.00;982261;30;20133;-58
2021/01/29 01:51:34;;;;;;;3.83;2.40;;;;;;;6.67;100.00;94824.09;986032;30;20150;-57
2021/01/29 01:52:07;;;;;;;3.22;2.20;;;;;;;6.62;100.00;94823.81;978760;30;20079;-58
2021/01/29 01:52:37;;;;;;;3.28;2.53;;;;;;;6.64;100.00;94823.66;978548;30;20027;-58
2021/01/29 01:53:19;;;;;;;3.90;2.67;;;;;;;6.64;100.00;94828.91;986043;30;20110;-57
2021/01/29 01:53:51;;;;;;;3.17;2.20;;;;;;;6.65;100.00;94820.81;989688;30;20433;-57
2021/01/29 01:54:32;;;;;;;3.53;2.45;;;;;;;6.66;100.00;94819.81;986131;30;20039;-57
2021/01/29 01:55:12;;;;;;;3.30;2.50;;;;;;;6.68;100.00;94819.63;996976;29;20034;-58
2021/01/29 01:55:42;;;;;;;;;;;;;;;6.70;100.00;94812.34;986523;30;20028;-58
2021/01/29 01:56:23;;;;;;;2.92;2.00;;;;;;;6.69;100.00;94803.63;986101;30;19925;-58
2021/01/29 01:56:55;;;;;;;3.13;2.45;;;;;;;6.70;100.00;94815.00;997049;29;20053;-57
2021/01/29 01:57:26;;;;;;;2.88;2.15;;;;;;;6.68;100.00;94809.09;993179;29;20414;-57
2021/01/29 01:57:57;;;;;;;2.92;2.13;;;;;;;6.67;100.00;94799.53;985512;30;20222;-58
2021/01/29 01:58:27;;;;;;;4.05;2.70;;;;;;;6.69;100.00;94806.28;993417;29;20045;-59
2021/01/29 01:59:01;;;;;;;2.72;2.15;;;;;;;6.68;100.00;94804.63;985840;30;20020;-58
2021/01/29 01:59:35;;;;;;;3.20;2.40;;;;;;;6.65;100.00;94810.25;982399;30;20028;-57
2021/01/29 02:00:10;;;;;;;3.20;2.13;;;;;;;6.65;100.00;94809.44;993358;29;20035;-58
2021/01/29 02:00:40;;;;;;;3.10;2.33;;;;;;;6.57;100.00;94797.97;997327;29;20029;-58
2021/01/29 02:01:11;;;;;;;3.03;2.20;;;;;;;6.63;100.00;94801.69;985711;30;20062;-57
2021/01/29 02:01:42;;;;;;;3.47;2.40;;;;;;;6.48;100.00;94777.97;985992;30;20038;-58
2021/01/29 02:02:14;;;;;;;3.63;2.13;;;;;;;6.63;100.00;94800.91;989763;30;20027;-58
2021/01/29 02:02:46;;;;;;;2.60;2.10;;;;;;;6.60;100.00;94792.34;989683;30;20051;-57
2021/01/29 02:03:19;;;;;;;3.55;2.30;;;;;;;6.64;100.00;94792.00;989493;30;20130;-58
2021/01/29 02:03:51;;;;;;;3.13;2.30;;;;;;;6.63;100.00;94792.97;978714;30;20052;-58
2021/01/29 02:04:31;;;;;;;3.05;2.40;;;;;;;6.61;100.00;94793.97;982380;30;20069;-58
2021/01/29 02:05:03;;;;;;;;;;;;;;;6.61;100.00;94793.97;986266;30;20073;-57
2021/01/29 02:05:36;;;;;;;3.33;1.88;;;;;;;6.61;100.00;94787.88;989594;30;19917;-57
2021/01/29 02:06:08;;;;;;;2.97;2.30;;;;;;;6.55;100.00;94792.06;993329;29;20098;-57
2021/01/29 02:06:51;;;;;;;3.20;2.38;;;;;;;6.58;100.00;94782.97;982297;30;20366;-57
2021/01/29 02:07:33;;;;;;;4.40;2.33;;;;;;;6.58;100.00;94783.81;981963;30;20052;-58
2021/01/29 02:08:05;;;;;;;2.40;2.00;;;;;;;6.56;100.00;94774.41;993292;29;20041;-57
2021/01/29 02:08:38;;;;;;;2.72;2.22;;;;;;;6.55;100.00;94780.69;993900;29;20076;-57
2021/01/29 02:09:09;;;;;;;2.88;2.20;;;;;;;6.52;100.00;94778.41;997051;29;20415;-57
2021/01/29 02:09:40;;;;;;;2.90;1.95;;;;;;;6.52;100.00;94784.50;990235;29;20063;-57
2021/01/29 02:10:11;;;;;;;2.55;2.17;;;;;;;6.52;100.00;94787.13;985998;29;20059;-58
2021/01/29 02:10:42;;;;;;;3.55;2.20;;;;;;;6.52;100.00;94784.50;989777;30;20035;-57
2021/01/29 02:11:13;;;;;;;3.15;2.22;;;;;;;6.52;100.00;94783.69;993292;29;20371;-57
2021/01/29 02:11:44;;;;;;;3.92;2.03;;;;;;;6.51;100.00;94787.31;985894;30;20529;-57
2021/01/29 02:12:17;;;;;;;3.15;2.28;;;;;;;6.52;100.00;94789.78;982309;30;20016;-57
2021/01/29 02:12:48;;;;;;;2.55;1.92;;;;;;;6.50;100.00;94786.50;985942;30;20019;-58
2021/01/29 02:13:19;;;;;;;2.88;2.15;;;;;;;6.52;100.00;94784.50;993327;29;20023;-59
2021/01/29 02:13:50;;;;;;;3.28;2.45;;;;;;;6.50;100.00;94786.50;982218;30;20062;-57
2021/01/29 02:14:21;;;;;;;3.47;1.90;;;;;;;6.47;100.00;94781.59;989655;30;20080;-57
2021/01/29 02:14:51;;;;;;;3.50;2.30;;;;;;;6.47;100.00;94786.06;993508;29;20025;-57
2021/01/29 02:15:24;;;;;;;2.83;2.00;;;;;;;6.47;100.00;94786.84;989553;30;20031;-57
2021/01/29 02:15:57;;;;;;;2.40;1.85;;;;;;;6.44;100.00;94781.94;989211;30;20324;-57
2021/01/29 02:16:36;;;;;;;3.65;2.10;;;;;;;6.45;100.00;94783.59;993383;29;20023;-57
2021/01/29 02:17:15;;;;;;;4.15;2.20;;;;;;;6.49;100.00;94779.59;982347;30;20023;-58
2021/01/29 02:18:07;;;;;;;3.20;2.15;;;;;;;6.53;100.00;94780.88;981983;30;20201;-58
2021/01/29 02:19:08;;;;;;;2.65;2.00;;;;;;;6.52;100.00;94784.50;975034;30;20033;-58
2021/01/29 02:20:02;;;;;;;3.53;2.45;;;;;;;6.55;100.00;94776.25;985947;30;20036;-58
2021/01/29 02:20:49;;;;;;;2.65;2.05;;;;;;;6.57;100.00;94774.25;989787;29;20459;-57
2021/01/29 02:21:39;;;;;;;2.55;1.63;;;;;;;6.59;100.00;94772.22;997060;29;20019;-57
2021/01/29 02:22:26;;;;;;;2.63;1.85;;;;;;;6.63;100.00;94770.03;989604;29;20026;-57
2021/01/29 02:23:14;;;;;;;3.88;1.90;;;;;;;6.63;100.00;94769.25;988863;30;20085;-57
2021/01/29 02:24:04;;;;;;;3.22;2.08;;;;;;;6.63;100.00;94761.31;979056;30;20124;-58
2021/01/29 02:24:41;;;;;;;;;;;;;;;6.65;100.00;94756.69;987225;30;20106;-58
2021/01/29 02:25:30;;;;;;;2.88;2.15;;;;;;;6.64;100.00;94750.59;993567;29;19979;-57
2021/01/29 02:26:17;;;;;;;2.83;2.08;;;;;;;6.67;100.00;94754.69;996399;29;20030;-57
2021/01/29 02:27:07;;;;;;;2.58;2.08;;;;;;;6.64;100.00;94755.06;996361;29;20077;-57
2021/01/29 02:27:49;;;;;;;3.50;2.17;;;;;;;6.68;100.00;94756.31;993268;29;20458;-57
2021/01/29 02:28:38;;;;;;;4.00;2.45;;;;;;;6.72;100.00;94750.50;993154;29;20422;-59
2021/01/29 02:29:24;;;;;;;3.47;2.50;;;;;;;6.74;100.00;94755.59;986067;30;20047;-57
2021/01/29 02:30:09;;;;;;;3.50;2.17;;;;;;;6.73;100.00;94752.13;979796;30;20036;-57
2021/01/29 02:30:48;;;;;;;2.95;2.10;;;;;;;6.69;100.00;94755.31;994609;29;20054;-58
2021/01/29 02:31:28;;;;;;;3.97;2.30;;;;;;;6.71;100.00;94745.41;993404;29;20026;-57
2021/01/29 02:32:09;;;;;;;2.80;2.40;;;;;;;6.74;100.00;94748.50;978562;30;20032;-57
2021/01/29 02:32:56;;;;;;;4.45;2.42;;;;;;;6.74;100.00;94745.03;991219;29;20034;-57
2021/01/29 02:33:36;;;;;;;2.95;2.08;;;;;;;6.77;100.00;94744.66;1000941;29;20118;-60
2021/01/29 02:34:15;;;;;;;3.17;2.38;;;;;;;6.67;100.00;94729.13;982212;30;20038;-57
2021/01/29 02:34:57;;;;;;;3.17;2.13;;;;;;;6.76;100.00;94740.41;982172;30;20488;-58
2021/01/29 02:35:48;;;;;;;2.65;2.10;;;;;;;6.80;100.00;94742.50;986004;30;20042;-57
2021/01/29 02:36:48;;;;;;;2.97;2.13;;;;;;;6.87;100.00;94741.78;986077;30;20053;-58
2021/01/29 02:37:28;;;;;;;2.85;1.92;;;;;;;6.83;100.00;94743.97;989466;30;20023;-58
2021/01/29 02:38:11;;;;;;;3.47;2.25;;;;;;;6.91;100.00;94743.84;988491;30;20059;-58